Time;durP1;ratioP1;P1;durP2;ratioP2;P2;SDS_P1;SDS_P2;PMS_P1;PMS_P2;Temp;Humidity;BMP_temperature;BMP_pressure;BME280_temperature;BME280_humidity;BME280_pressure;Samples;Min_cycle;Max_cycle;Signal;HPM_P1;HPM_P2
2022/01/11 00:00:35;;;;;;;139.27;26.58;;;0.30;99.90;;;;;;4972688;28;20077;-88
2022/01/11 00:03:03;;;;;;;161.35;27.83;;;0.40;99.90;;;;;;4973456;28;20618;-88
2022/01/11 00:05:33;;;;;;;182.88;29.85;;;0.40;99.90;;;;;;4974111;28;20031;-88
2022/01/11 00:08:00;;;;;;;127.75;25.42;;;0.40;99.90;;;;;;4974404;28;20033;-88
2022/01/11 00:10:46;;;;;;;157.00;27.70;;;0.40;99.90;;;;;;4972815;28;20038;-89
2022/01/11 00:13:12;;;;;;;154.80;27.50;;;0.40;99.90;;;;;;4972079;28;20034;-88
2022/01/11 00:15:37;;;;;;;165.60;26.85;;;0.40;99.90;;;;;;4972651;28;20494;-88
2022/01/11 00:18:03;;;;;;;162.77;28.27;;;0.40;99.90;;;;;;4974112;28;20464;-88
2022/01/11 00:20:29;;;;;;;146.80;26.13;;;0.40;99.90;;;;;;4980852;28;20117;-88
2022/01/11 00:25:29;;;;;;;174.45;27.77;;;0.40;99.90;;;;;;4996673;28;20027;-88
2022/01/11 00:27:55;;;;;;;148.88;24.77;;;0.40;99.90;;;;;;4997008;28;20050;-88
2022/01/11 00:30:21;;;;;;;179.27;29.15;;;0.40;99.90;;;;;;4988266;28;20022;-88
2022/01/11 00:32:52;;;;;;;121.57;24.35;;;0.40;99.90;;;;;;4979301;28;20033;-88
2022/01/11 00:35:22;;;;;;;129.32;24.83;;;0.40;99.90;;;;;;4979185;28;20022;-88
2022/01/11 00:37:48;;;;;;;175.40;26.85;;;0.40;99.90;;;;;;4979724;28;20041;-88
2022/01/11 00:40:13;;;;;;;115.22;24.65;;;0.40;99.90;;;;;;4976510;28;20026;-88
2022/01/11 00:42:39;;;;;;;119.35;24.40;;;0.40;99.90;;;;;;4987797;28;20034;-88
2022/01/11 00:45:07;;;;;;;120.10;24.98;;;0.40;99.90;;;;;;4979494;28;20030;-88
2022/01/11 00:47:32;;;;;;;129.02;24.98;;;0.40;99.90;;;;;;4977806;28;20487;-88
2022/01/11 00:49:58;;;;;;;181.68;25.83;;;0.40;99.90;;;;;;4997809;28;20073;-88
2022/01/11 00:52:23;;;;;;;143.50;26.85;;;0.40;99.90;;;;;;4984292;28;20053;-88
2022/01/11 00:54:49;;;;;;;241.52;31.60;;;0.40;99.90;;;;;;4995954;28;20065;-88
2022/01/11 00:57:15;;;;;;;175.10;28.00;;;0.50;99.90;;;;;;4976251;28;20061;-88
2022/01/11 00:59:40;;;;;;;160.20;26.98;;;0.50;99.90;;;;;;4979250;28;20399;-88
2022/01/11 01:02:06;;;;;;;175.10;30.15;;;0.50;99.90;;;;;;4984435;28;20038;-88
2022/01/11 01:04:32;;;;;;;184.32;27.50;;;0.50;99.90;;;;;;4976498;28;20041;-89
2022/01/11 01:06:57;;;;;;;224.57;30.90;;;0.60;99.90;;;;;;4978194;28;20497;-88
2022/01/11 01:09:26;;;;;;;115.10;24.92;;;0.60;99.90;;;;;;4976182;28;20041;-88
2022/01/11 01:11:51;;;;;;;193.15;28.08;;;0.60;99.90;;;;;;4978683;28;20019;-88
2022/01/11 01:14:17;;;;;;;210.13;29.98;;;0.60;99.90;;;;;;4986830;28;20379;-89
2022/01/11 01:16:43;;;;;;;213.23;29.20;;;0.70;99.90;;;;;;4979506;28;20113;-88
2022/01/11 01:19:08;;;;;;;205.02;29.30;;;0.70;99.90;;;;;;4976567;28;20031;-89
2022/01/11 01:21:37;;;;;;;146.73;30.05;;;0.70;99.90;;;;;;4978230;28;20077;-89
2022/01/11 01:24:05;;;;;;;207.38;32.58;;;0.70;99.90;;;;;;4978322;28;20530;-89
2022/01/11 01:26:31;;;;;;;165.10;29.05;;;0.70;99.90;;;;;;4978358;28;20104;-88
2022/01/11 01:28:59;;;;;;;224.05;31.23;;;0.80;99.90;;;;;;4977137;28;20034;-89
2022/01/11 01:31:28;;;;;;;248.77;33.30;;;0.80;99.90;;;;;;4973033;28;20030;-90
2022/01/11 01:33:57;;;;;;;226.55;33.00;;;0.80;99.90;;;;;;4977696;28;20022;-89
2022/01/11 01:36:24;;;;;;;153.65;26.40;;;0.90;99.90;;;;;;4978191;28;20505;-89
2022/01/11 01:38:50;;;;;;;254.18;32.58;;;0.90;99.90;;;;;;4995564;28;20085;-86
2022/01/11 01:41:18;;;;;;;223.05;33.30;;;0.90;99.90;;;;;;4993344;28;20023;-89
2022/01/11 01:43:47;;;;;;;233.55;29.08;;;0.90;99.90;;;;;;4966053;28;20074;-89
2022/01/11 01:46:14;;;;;;;187.77;29.13;;;0.90;99.90;;;;;;4969028;28;20053;-89
2022/01/11 01:48:39;;;;;;;226.68;35.05;;;0.90;99.90;;;;;;4977734;28;20026;-88
2022/01/11 01:51:06;;;;;;;206.88;31.33;;;0.90;99.90;;;;;;4977949;28;20019;-88
2022/01/11 01:53:34;;;;;;;112.78;25.33;;;0.80;99.90;;;;;;4976654;28;20033;-89
2022/01/11 01:56:23;;;;;;;183.85;31.63;;;0.80;99.90;;;;;;4971439;28;20476;-88
2022/01/11 01:58:52;;;;;;;145.73;29.08;;;0.80;99.90;;;;;;4992526;28;20045;-88
2022/01/11 02:01:18;;;;;;;117.22;26.98;;;0.70;99.90;;;;;;4994441;28;20031;-88
2022/01/11 02:03:45;;;;;;;89.05;24.33;;;0.70;99.90;;;;;;4993133;28;20046;-88
2022/01/11 02:06:16;;;;;;;83.75;24.15;;;0.70;99.90;;;;;;4973683;28;20094;-89
2022/01/11 02:08:47;;;;;;;78.10;24.00;;;0.70;99.90;;;;;;4984262;28;20446;-88
2022/01/11 02:11:18;;;;;;;94.38;24.55;;;0.70;99.90;;;;;;4975226;28;20030;-89
2022/01/11 02:13:45;;;;;;;122.15;25.85;;;0.70;99.90;;;;;;4977355;28;20041;-88
2022/01/11 02:16:12;;;;;;;128.50;27.83;;;0.60;99.90;;;;;;4977540;28;20030;-88
2022/01/11 02:18:37;;;;;;;120.75;28.02;;;0.70;99.90;;;;;;4972617;28;20027;-88
2022/01/11 02:21:03;;;;;;;96.57;25.83;;;0.70;99.90;;;;;;4979035;28;20034;-88
2022/01/11 02:23:29;;;;;;;109.03;28.08;;;0.60;99.90;;;;;;4975297;28;20110;-88
2022/01/11 02:25:56;;;;;;;117.50;29.13;;;0.60;99.90;;;;;;4977601;28;20030;-89
2022/01/11 02:28:24;;;;;;;98.65;25.52;;;0.60;99.90;;;;;;4977242;28;20037;-88
2022/01/11 02:30:51;;;;;;;111.95;27.52;;;0.50;99.90;;;;;;4977494;28;20026;-87
2022/01/11 02:33:38;;;;;;;90.40;26.13;;;0.50;99.90;;;;;;4993470;28;20041;-88
2022/01/11 02:36:09;;;;;;;95.13;25.40;;;0.50;99.90;;;;;;4985357;28;20057;-88
2022/01/11 02:38:35;;;;;;;85.20;23.92;;;0.40;99.90;;;;;;4971446;28;20428;-88
2022/01/11 02:41:02;;;;;;;106.95;26.55;;;0.40;99.90;;;;;;4991652;28;20474;-88
2022/01/11 02:43:29;;;;;;;95.10;27.35;;;0.30;99.90;;;;;;4968108;28;20069;-88
2022/01/11 02:45:55;;;;;;;100.82;24.98;;;0.30;99.90;;;;;;4992620;28;20026;-88
2022/01/11 02:48:21;;;;;;;79.68;23.65;;;0.30;99.90;;;;;;4972796;28;20038;-88
2022/01/11 02:50:48;;;;;;;73.70;22.60;;;0.20;99.90;;;;;;4992150;28;20022;-88
2022/01/11 02:53:14;;;;;;;80.15;24.15;;;0.20;99.90;;;;;;4976196;28;20027;-88
2022/01/11 02:55:43;;;;;;;70.35;21.58;;;0.20;99.90;;;;;;4973265;28;20076;-89
2022/01/11 02:58:09;;;;;;;82.32;22.33;;;0.20;99.90;;;;;;4983533;28;20068;-89
2022/01/11 03:00:35;;;;;;;85.15;23.92;;;0.20;99.90;;;;;;4975931;28;20022;-89
2022/01/11 03:03:12;;;;;;;77.78;22.67;;;0.20;99.90;;;;;;4987637;28;20105;-89
2022/01/11 03:05:45;;;;;;;67.60;22.90;;;0.30;99.90;;;;;;4976658;28;20030;-89
2022/01/11 03:08:11;;;;;;;68.53;21.17;;;0.30;99.90;;;;;;4977082;28;20030;-89
2022/01/11 03:10:37;;;;;;;74.75;23.45;;;0.30;99.90;;;;;;4976680;28;20057;-88
2022/01/11 03:13:05;;;;;;;77.45;23.55;;;0.20;99.90;;;;;;4993341;28;20062;-89
2022/01/11 03:15:31;;;;;;;68.05;21.58;;;0.20;99.90;;;;;;4970800;28;20084;-88
2022/01/11 03:17:57;;;;;;;77.63;24.35;;;0.20;99.90;;;;;;4976607;28;20121;-89
2022/01/11 03:20:22;;;;;;;86.97;26.45;;;0.20;99.90;;;;;;4971355;28;20554;-88
2022/01/11 03:22:48;;;;;;;80.63;24.60;;;0.20;99.90;;;;;;4993931;28;20430;-89
2022/01/11 03:25:14;;;;;;;62.95;20.33;;;0.20;99.90;;;;;;4966564;28;20402;-88
2022/01/11 03:27:44;;;;;;;72.97;23.30;;;0.20;99.90;;;;;;4976772;28;20030;-88
2022/01/11 03:30:11;;;;;;;80.35;25.00;;;0.20;99.90;;;;;;4965965;28;20660;-89
2022/01/11 03:32:36;;;;;;;66.00;22.67;;;0.30;99.90;;;;;;4967572;28;20031;-89
2022/01/11 03:35:04;;;;;;;83.60;24.77;;;0.30;99.90;;;;;;4976145;28;20161;-89
2022/01/11 03:37:30;;;;;;;70.07;20.85;;;0.30;99.90;;;;;;4976086;28;20475;-89
2022/01/11 03:39:55;;;;;;;65.07;21.60;;;0.30;99.90;;;;;;4975276;28;20038;-88
2022/01/11 03:42:21;;;;;;;69.65;23.60;;;0.30;99.90;;;;;;4984294;28;20092;-89
2022/01/11 03:44:46;;;;;;;64.28;21.10;;;0.20;99.90;;;;;;4972481;28;20097;-89
2022/01/11 03:47:12;;;;;;;73.63;24.35;;;0.20;99.90;;;;;;4976122;28;20030;-88
2022/01/11 03:49:37;;;;;;;60.03;22.42;;;0.20;99.90;;;;;;4971977;28;20503;-89
2022/01/11 03:52:03;;;;;;;74.28;23.45;;;0.20;99.90;;;;;;4978324;28;20069;-89
2022/01/11 03:54:43;;;;;;;71.03;24.38;;;0.20;99.90;;;;;;4986637;28;20125;-89
2022/01/11 03:57:09;;;;;;;82.63;25.63;;;0.20;99.90;;;;;;4973752;28;20033;-89
2022/01/11 03:59:34;;;;;;;85.78;25.23;;;0.20;99.90;;;;;;4978949;28;20022;-89
2022/01/11 04:02:00;;;;;;;77.45;25.13;;;0.20;99.90;;;;;;4971119;28;20041;-89
2022/01/11 04:04:26;;;;;;;75.22;25.05;;;0.20;99.90;;;;;;4970430;28;20526;-88
2022/01/11 04:06:51;;;;;;;66.25;23.67;;;0.20;99.90;;;;;;4986704;28;20109;-89
2022/01/11 04:09:17;;;;;;;72.00;24.33;;;0.20;99.90;;;;;;4979139;28;20027;-89
2022/01/11 04:11:43;;;;;;;77.72;26.10;;;0.20;99.90;;;;;;4980132;28;20022;-89
2022/01/11 04:14:08;;;;;;;63.92;21.67;;;0.20;99.90;;;;;;4980283;28;20030;-89
2022/01/11 04:16:34;;;;;;;75.95;25.38;;;0.20;99.90;;;;;;4979926;28;20036;-89
2022/01/11 04:18:59;;;;;;;74.95;25.08;;;0.20;99.90;;;;;;4977114;28;20157;-88
2022/01/11 04:21:25;;;;;;;74.20;25.10;;;0.20;99.90;;;;;;4979975;28;20109;-89
2022/01/11 04:23:51;;;;;;;73.90;24.27;;;0.10;99.90;;;;;;4976491;28;20114;-89
2022/01/11 04:26:17;;;;;;;82.35;25.90;;;0.10;99.90;;;;;;4996920;28;20495;-88
2022/01/11 04:28:42;;;;;;;72.70;23.73;;;0.20;99.90;;;;;;4980091;28;20027;-90
2022/01/11 04:31:08;;;;;;;77.00;25.08;;;0.10;99.90;;;;;;4979118;28;20049;-89
2022/01/11 04:33:33;;;;;;;76.80;24.40;;;0.10;99.90;;;;;;4979803;28;20034;-89
2022/01/11 04:36:00;;;;;;;83.10;26.67;;;0.10;99.90;;;;;;4972152;28;20042;-88
2022/01/11 04:38:28;;;;;;;99.75;28.63;;;0.10;99.90;;;;;;4979448;28;20612;-89
2022/01/11 04:40:54;;;;;;;78.30;26.90;;;0.20;99.90;;;;;;4978816;28;20129;-89
2022/01/11 04:43:20;;;;;;;81.50;25.73;;;0.20;99.90;;;;;;4979139;28;20129;-89
2022/01/11 04:45:47;;;;;;;95.88;29.95;;;0.10;99.90;;;;;;4975544;28;20073;-89
2022/01/11 04:48:14;;;;;;;67.05;24.08;;;0.20;99.90;;;;;;4995926;28;20065;-88
2022/01/11 04:50:40;;;;;;;88.25;27.42;;;0.10;99.90;;;;;;4979045;28;20394;-89
2022/01/11 04:53:06;;;;;;;76.78;27.48;;;0.10;99.90;;;;;;4978518;28;20125;-90
2022/01/11 04:55:32;;;;;;;83.03;26.83;;;0.10;99.90;;;;;;4979796;28;20113;-90
2022/01/11 04:57:58;;;;;;;72.18;23.58;;;0.10;99.90;;;;;;4979416;28;20036;-89
2022/01/11 05:00:25;;;;;;;74.53;24.90;;;0.20;99.90;;;;;;4979705;28;20076;-89
2022/01/11 05:02:51;;;;;;;79.78;27.08;;;0.20;99.90;;;;;;4979231;28;20066;-89
2022/01/11 05:05:17;;;;;;;87.65;27.77;;;0.10;99.90;;;;;;4975036;28;20031;-89
2022/01/11 05:07:44;;;;;;;66.47;22.95;;;0.10;99.90;;;;;;4986534;28;20117;-89
2022/01/11 05:10:09;;;;;;;70.32;25.13;;;0.10;99.90;;;;;;4980128;28;20037;-89
2022/01/11 05:12:38;;;;;;;75.53;26.67;;;0.10;99.90;;;;;;4983830;28;20026;-89
2022/01/11 05:15:04;;;;;;;81.15;27.45;;;0.10;99.90;;;;;;4978279;28;20106;-89
2022/01/11 05:17:30;;;;;;;76.43;24.90;;;0.10;99.90;;;;;;4978246;28;20026;-89
2022/01/11 05:19:55;;;;;;;82.18;28.77;;;0.10;99.90;;;;;;4975381;28;22084;-89
2022/01/11 05:22:21;;;;;;;80.47;27.05;;;0.10;99.90;;;;;;4977345;28;20054;-89
2022/01/11 05:24:46;;;;;;;78.22;27.52;;;0.20;99.90;;;;;;4980447;28;20026;-89
2022/01/11 05:27:14;;;;;;;83.25;29.40;;;0.20;99.90;;;;;;4980692;28;20029;-89
2022/01/11 05:29:39;;;;;;;76.78;26.80;;;0.10;99.90;;;;;;4978608;28;20031;-88
2022/01/11 05:32:05;;;;;;;75.43;27.20;;;0.10;99.90;;;;;;4976365;28;20026;-90
2022/01/11 05:34:31;;;;;;;80.28;29.17;;;0.10;99.90;;;;;;4970311;28;20026;-89
2022/01/11 05:36:56;;;;;;;78.32;25.40;;;0.10;99.90;;;;;;4977558;28;20022;-88
2022/01/11 05:39:22;;;;;;;80.22;27.92;;;0.10;99.90;;;;;;4978832;28;20483;-89
2022/01/11 05:41:47;;;;;;;74.50;27.13;;;0.10;99.90;;;;;;4978571;28;20345;-90
2022/01/11 05:44:13;;;;;;;77.38;28.15;;;0.00;99.90;;;;;;4979000;28;20502;-90
2022/01/11 05:46:39;;;;;;;74.55;28.50;;;0.00;99.90;;;;;;4979997;28;20022;-91
2022/01/11 05:49:04;;;;;;;76.82;28.83;;;-0.10;99.90;;;;;;4976750;28;20480;-90
2022/01/11 05:51:30;;;;;;;66.63;25.38;;;-0.10;99.90;;;;;;4978250;28;20368;-90
2022/01/11 05:53:56;;;;;;;75.25;27.92;;;-0.10;99.90;;;;;;4979564;28;20030;-90
2022/01/11 05:56:21;;;;;;;86.43;28.52;;;-0.10;99.90;;;;;;4974731;28;20054;-91
2022/01/11 05:58:47;;;;;;;72.03;25.73;;;-0.10;99.90;;;;;;4974354;28;20112;-91
2022/01/11 06:01:14;;;;;;;81.75;28.40;;;-0.10;99.90;;;;;;4971932;28;20025;-91
2022/01/11 06:03:40;;;;;;;78.18;27.17;;;-0.10;99.90;;;;;;4975566;28;20045;-90
2022/01/11 06:06:06;;;;;;;76.78;27.23;;;-0.10;99.90;;;;;;4973623;28;20462;-91
2022/01/11 06:08:31;;;;;;;78.45;27.10;;;-0.10;99.90;;;;;;4969570;28;20084;-90
2022/01/11 06:10:57;;;;;;;79.38;28.48;;;-0.10;99.90;;;;;;4970172;28;20476;-91
2022/01/11 06:13:23;;;;;;;82.10;27.45;;;-0.10;99.90;;;;;;4976161;28;20068;-92
2022/01/11 06:15:50;;;;;;;86.25;27.30;;;-0.10;99.90;;;;;;4973548;28;20030;-90
2022/01/11 06:18:15;;;;;;;80.45;27.17;;;-0.10;99.90;;;;;;4972781;28;20022;-91
2022/01/11 06:20:41;;;;;;;76.18;25.48;;;-0.10;99.90;;;;;;4971591;28;20077;-92
2022/01/11 06:23:07;;;;;;;78.50;27.10;;;-0.10;99.90;;;;;;4969603;28;20050;-90
2022/01/11 06:25:32;;;;;;;80.82;27.02;;;-0.10;99.90;;;;;;4972085;28;20105;-90
2022/01/11 06:27:58;;;;;;;75.25;26.90;;;-0.10;99.90;;;;;;4972365;28;20038;-91
2022/01/11 06:30:25;;;;;;;77.75;26.23;;;-0.10;99.90;;;;;;4986119;28;20060;-91
2022/01/11 06:32:51;;;;;;;77.82;26.52;;;-0.10;99.90;;;;;;4971972;28;20026;-91
2022/01/11 06:35:18;;;;;;;77.30;25.52;;;-0.10;99.90;;;;;;4986470;28;20053;-92
2022/01/11 06:37:44;;;;;;;73.60;26.08;;;0.00;99.90;;;;;;4977736;28;20034;-90
2022/01/11 06:40:12;;;;;;;83.65;28.15;;;0.00;99.90;;;;;;4977596;28;20056;-90
2022/01/11 06:42:37;;;;;;;84.57;29.52;;;0.00;99.90;;;;;;4994559;28;20038;-91
2022/01/11 06:45:05;;;;;;;75.53;26.23;;;0.00;99.90;;;;;;4978220;28;20026;-91
2022/01/11 06:47:31;;;;;;;96.55;29.55;;;0.00;99.90;;;;;;4996095;28;20126;-91
2022/01/11 06:49:56;;;;;;;78.82;27.02;;;0.00;99.90;;;;;;4995193;28;20399;-91
2022/01/11 06:52:22;;;;;;;72.95;27.70;;;0.00;99.90;;;;;;4977159;28;20030;-91
2022/01/11 06:54:47;;;;;;;81.15;26.95;;;0.00;99.90;;;;;;4978914;28;20045;-91
2022/01/11 06:57:13;;;;;;;73.40;25.05;;;0.00;99.90;;;;;;4983789;28;20031;-91
2022/01/11 06:59:39;;;;;;;87.28;27.48;;;0.00;99.90;;;;;;4996656;28;20053;-90
2022/01/11 07:02:05;;;;;;;81.90;27.27;;;0.00;99.90;;;;;;4978367;28;20027;-89
2022/01/11 07:04:31;;;;;;;70.93;25.42;;;0.00;99.90;;;;;;4978637;28;20077;-89
2022/01/11 07:06:57;;;;;;;70.82;24.48;;;-0.10;99.90;;;;;;4995480;28;20031;-90
2022/01/11 07:09:22;;;;;;;77.53;27.23;;;-0.10;99.90;;;;;;4978283;28;20118;-90
2022/01/11 07:11:48;;;;;;;72.95;26.38;;;-0.20;99.90;;;;;;4977211;28;20092;-90
2022/01/11 07:14:14;;;;;;;78.53;27.52;;;-0.20;99.90;;;;;;4977857;28;20391;-89
2022/01/11 07:16:39;;;;;;;72.75;24.92;;;-0.20;99.90;;;;;;4978318;28;20479;-90
2022/01/11 07:19:05;;;;;;;80.93;29.17;;;-0.20;99.90;;;;;;4994810;28;20438;-90
2022/01/11 07:21:34;;;;;;;87.40;28.90;;;-0.20;99.90;;;;;;4977418;28;20502;-89
2022/01/11 07:24:00;;;;;;;89.28;28.20;;;-0.30;99.90;;;;;;4995176;28;20050;-89
2022/01/11 07:26:26;;;;;;;79.78;26.17;;;-0.30;99.90;;;;;;4994628;28;20049;-89
2022/01/11 07:28:51;;;;;;;89.18;28.73;;;-0.30;99.90;;;;;;4977195;28;20030;-89
2022/01/11 07:31:17;;;;;;;70.85;23.77;;;-0.30;99.90;;;;;;4973365;28;20054;-89
2022/01/11 07:33:42;;;;;;;76.90;26.70;;;-0.20;99.90;;;;;;4977766;28;20033;-89
2022/01/11 07:36:08;;;;;;;79.80;27.02;;;-0.30;99.90;;;;;;4970650;28;20472;-89
2022/01/11 07:38:33;;;;;;;69.65;25.92;;;-0.30;99.90;;;;;;4976484;28;20110;-89
2022/01/11 07:40:59;;;;;;;69.85;26.27;;;-0.30;99.90;;;;;;4980419;28;20066;-88
2022/01/11 07:43:24;;;;;;;67.80;25.45;;;-0.30;99.90;;;;;;4977245;28;20475;-88
2022/01/11 07:45:50;;;;;;;73.68;26.55;;;-0.30;99.90;;;;;;4972641;28;20019;-88
2022/01/11 07:48:15;;;;;;;67.38;24.45;;;-0.30;99.90;;;;;;4958145;28;20122;-89
2022/01/11 07:50:41;;;;;;;67.55;25.40;;;-0.30;99.90;;;;;;4992155;28;20026;-88
2022/01/11 07:53:06;;;;;;;61.65;24.75;;;-0.40;99.90;;;;;;4977932;28;20041;-91
2022/01/11 07:55:33;;;;;;;65.25;25.20;;;-0.30;99.90;;;;;;4977804;28;20022;-91
2022/01/11 07:57:58;;;;;;;57.25;24.85;;;-0.30;99.90;;;;;;4977579;28;20157;-90
2022/01/11 08:00:24;;;;;;;64.18;25.45;;;-0.30;99.90;;;;;;4977566;28;20105;-90
2022/01/11 08:02:49;;;;;;;69.32;25.80;;;-0.30;99.90;;;;;;4976965;28;20513;-91
2022/01/11 08:05:16;;;;;;;70.57;27.10;;;-0.30;99.90;;;;;;4977832;28;20032;-91
2022/01/11 08:07:42;;;;;;;60.20;25.75;;;-0.30;99.90;;;;;;4978766;28;20561;-91
2022/01/11 08:10:11;;;;;;;68.05;25.77;;;-0.20;99.90;;;;;;4977747;28;20153;-92
2022/01/11 08:12:37;;;;;;;72.38;27.52;;;-0.20;99.90;;;;;;4995639;28;20015;-91
2022/01/11 08:15:03;;;;;;;69.78;27.30;;;-0.20;99.90;;;;;;4977332;28;20018;-91
2022/01/11 08:17:29;;;;;;;72.90;28.08;;;-0.10;99.90;;;;;;4977683;28;20034;-91
2022/01/11 08:19:55;;;;;;;74.72;29.48;;;-0.10;99.90;;;;;;4977788;28;20086;-89
2022/01/11 08:22:20;;;;;;;72.90;30.00;;;-0.10;99.90;;;;;;4992930;28;20105;-89
2022/01/11 08:24:46;;;;;;;71.97;28.15;;;0.00;99.90;;;;;;4977912;28;20014;-90
2022/01/11 08:27:12;;;;;;;71.90;28.30;;;0.00;99.90;;;;;;4983109;28;20397;-90
2022/01/11 08:29:39;;;;;;;76.40;29.60;;;0.00;99.90;;;;;;4977247;28;20036;-89
2022/01/11 08:32:06;;;;;;;74.22;29.38;;;0.10;99.90;;;;;;4974995;28;20085;-89
2022/01/11 08:34:32;;;;;;;80.90;31.13;;;0.10;99.90;;;;;;4972718;28;20026;-89
2022/01/11 08:36:59;;;;;;;70.53;27.73;;;0.20;99.90;;;;;;4975954;28;20534;-89
2022/01/11 08:39:25;;;;;;;75.90;29.75;;;0.30;99.90;;;;;;4975865;28;20030;-89
2022/01/11 08:41:51;;;;;;;75.70;31.33;;;0.30;99.90;;;;;;4973994;28;20027;-89
2022/01/11 08:44:19;;;;;;;70.07;28.92;;;0.40;99.90;;;;;;4974945;28;20053;-90
2022/01/11 08:46:46;;;;;;;69.07;28.08;;;0.50;99.90;;;;;;4979592;28;20062;-90
2022/01/11 08:49:13;;;;;;;73.97;29.38;;;0.50;99.90;;;;;;4965490;28;20123;-89
2022/01/11 08:51:39;;;;;;;67.07;29.15;;;0.50;99.90;;;;;;4979958;28;20026;-89
2022/01/11 08:54:05;;;;;;;64.35;26.38;;;0.60;99.90;;;;;;4980292;28;20030;-89
2022/01/11 08:56:32;;;;;;;68.10;29.73;;;0.60;99.90;;;;;;4980177;28;20026;-89
2022/01/11 08:58:59;;;;;;;68.20;28.08;;;0.60;99.90;;;;;;4979235;28;20045;-88
2022/01/11 09:01:30;;;;;;;64.15;26.52;;;0.60;99.90;;;;;;4981549;28;20054;-89
2022/01/11 09:03:55;;;;;;;59.38;25.25;;;0.70;99.90;;;;;;4989123;28;20041;-89
2022/01/11 09:06:21;;;;;;;61.75;25.80;;;0.70;99.90;;;;;;4979760;28;20018;-90
2022/01/11 09:08:47;;;;;;;62.35;26.52;;;0.80;99.90;;;;;;4969957;28;20054;-88
2022/01/11 09:11:13;;;;;;;61.03;24.73;;;0.80;99.90;;;;;;4977290;28;20085;-89
2022/01/11 09:13:39;;;;;;;65.43;29.17;;;0.90;99.90;;;;;;4979075;28;20031;-89
2022/01/11 09:16:05;;;;;;;69.93;27.50;;;0.90;99.90;;;;;;4979311;28;20387;-89
2022/01/11 09:18:31;;;;;;;57.20;26.17;;;1.00;99.90;;;;;;4979189;28;20034;-88
2022/01/11 09:21:00;;;;;;;56.17;25.95;;;1.10;99.90;;;;;;4975847;28;20500;-89
2022/01/11 09:23:27;;;;;;;52.00;23.98;;;1.20;99.90;;;;;;4985901;28;20086;-90
2022/01/11 09:25:53;;;;;;;56.92;26.23;;;1.30;99.90;;;;;;4975565;28;20027;-89
2022/01/11 09:28:18;;;;;;;58.63;25.77;;;1.30;99.90;;;;;;4975615;28;20054;-89
2022/01/11 09:30:44;;;;;;;54.25;25.08;;;1.40;99.90;;;;;;4975425;28;20543;-89
2022/01/11 09:33:09;;;;;;;53.25;26.63;;;1.40;99.90;;;;;;4975283;28;20384;-89
2022/01/11 09:35:35;;;;;;;59.67;26.13;;;1.40;99.90;;;;;;4975573;28;20113;-88
2022/01/11 09:38:01;;;;;;;53.45;25.33;;;1.50;99.90;;;;;;4991132;28;20034;-88
2022/01/11 09:40:27;;;;;;;54.28;24.58;;;1.50;99.90;;;;;;4972432;28;20031;-89
2022/01/11 09:42:53;;;;;;;53.75;25.70;;;1.50;99.90;;;;;;4988518;28;20129;-90
2022/01/11 09:45:19;;;;;;;48.08;23.20;;;1.60;99.90;;;;;;4975428;28;20019;-89
2022/01/11 09:47:46;;;;;;;52.92;23.67;;;1.60;99.90;;;;;;4975611;28;20035;-89
2022/01/11 09:50:14;;;;;;;52.45;25.77;;;1.60;99.90;;;;;;4969827;28;20028;-88
2022/01/11 09:52:40;;;;;;;65.22;27.20;;;1.60;99.90;;;;;;4976377;28;20062;-87
2022/01/11 09:55:08;;;;;;;47.63;23.77;;;1.70;99.90;;;;;;4975391;28;20031;-88
2022/01/11 09:57:34;;;;;;;57.85;25.05;;;1.70;99.90;;;;;;4969692;28;20039;-87
2022/01/11 10:00:00;;;;;;;53.45;24.77;;;1.70;99.90;;;;;;4974370;28;20050;-87
2022/01/11 10:02:26;;;;;;;50.15;23.00;;;1.80;99.90;;;;;;4974601;28;20038;-88
2022/01/11 10:05:01;;;;;;;47.92;23.05;;;1.80;99.90;;;;;;4975825;28;20400;-87
2022/01/11 10:07:35;;;;;;;51.10;22.38;;;1.80;99.90;;;;;;4974905;28;20541;-87
2022/01/11 10:10:01;;;;;;;58.38;26.45;;;1.70;99.90;;;;;;4987441;28;20038;-87
2022/01/11 10:12:29;;;;;;;55.38;25.52;;;1.80;99.90;;;;;;4975417;28;20081;-88
2022/01/11 10:14:57;;;;;;;53.55;24.20;;;1.80;99.90;;;;;;4974876;28;20050;-89
2022/01/11 10:17:37;;;;;;;52.30;24.88;;;1.80;99.90;;;;;;4973852;28;20023;-89
2022/01/11 10:20:21;;;;;;;59.63;25.80;;;1.80;99.90;;;;;;4988420;28;20070;-89
2022/01/11 10:22:56;;;;;;;49.20;22.63;;;1.90;99.90;;;;;;4975421;28;20050;-88
2022/01/11 10:25:22;;;;;;;61.95;26.25;;;1.90;99.90;;;;;;4955965;28;20027;-88
2022/01/11 10:28:03;;;;;;;62.92;26.98;;;1.90;99.90;;;;;;4974302;28;20147;-88
2022/01/11 10:30:30;;;;;;;63.30;26.55;;;2.00;99.90;;;;;;4972616;28;20026;-89
2022/01/11 10:33:00;;;;;;;60.63;26.88;;;2.00;99.90;;;;;;4986543;28;20034;-88
2022/01/11 10:35:30;;;;;;;51.95;25.17;;;2.00;99.90;;;;;;4974937;28;20507;-88
2022/01/11 10:37:59;;;;;;;58.42;26.02;;;2.00;99.90;;;;;;4974191;28;20037;-89
2022/01/11 10:40:32;;;;;;;47.58;21.92;;;2.10;99.90;;;;;;4973677;28;20058;-88
2022/01/11 10:43:00;;;;;;;57.55;25.50;;;2.10;99.90;;;;;;4972989;28;20035;-87
2022/01/11 10:45:35;;;;;;;56.55;26.08;;;2.20;99.90;;;;;;4989440;28;20038;-87
2022/01/11 10:48:07;;;;;;;55.13;23.60;;;2.20;99.90;;;;;;4972279;28;20118;-87
2022/01/11 10:50:37;;;;;;;54.25;24.73;;;2.30;99.90;;;;;;4985040;28;20027;-88
2022/01/11 10:53:05;;;;;;;52.67;25.25;;;2.30;99.90;;;;;;4989508;28;20027;-88
2022/01/11 10:55:33;;;;;;;53.67;24.35;;;2.40;99.90;;;;;;4973359;28;20030;-88
2022/01/11 10:58:01;;;;;;;51.92;24.35;;;2.40;99.90;;;;;;4975055;28;20086;-88
2022/01/11 11:00:31;;;;;;;55.03;24.45;;;2.50;99.90;;;;;;4989824;28;20023;-86
2022/01/11 11:02:58;;;;;;;54.70;25.05;;;2.60;99.90;;;;;;4989482;28;20058;-86
2022/01/11 11:05:29;;;;;;;57.90;25.13;;;2.60;99.90;;;;;;4987179;28;20027;-86
2022/01/11 11:08:10;;;;;;;49.55;22.85;;;2.70;99.90;;;;;;4973669;28;20030;-87
2022/01/11 11:10:42;;;;;;;57.92;24.98;;;2.80;99.90;;;;;;4959462;28;20058;-86
2022/01/11 11:13:10;;;;;;;55.35;24.23;;;2.80;99.90;;;;;;4973714;28;20045;-86
2022/01/11 11:15:39;;;;;;;50.65;24.13;;;2.90;99.90;;;;;;4966151;28;20135;-87
2022/01/11 11:18:19;;;;;;;55.38;24.67;;;2.90;99.90;;;;;;4965409;28;20019;-87
2022/01/11 11:20:45;;;;;;;52.10;25.20;;;3.00;99.90;;;;;;4974655;28;20030;-86
2022/01/11 11:23:12;;;;;;;54.13;23.75;;;3.00;99.90;;;;;;4986426;28;20052;-86
2022/01/11 11:25:39;;;;;;;58.13;25.27;;;3.00;99.90;;;;;;4973803;28;20023;-86
2022/01/11 11:28:05;;;;;;;48.35;22.80;;;3.00;99.90;;;;;;4962558;28;20486;-87
2022/01/11 11:30:31;;;;;;;49.75;23.75;;;3.00;99.90;;;;;;4977135;28;20033;-86
2022/01/11 11:32:57;;;;;;;53.10;23.73;;;3.10;99.90;;;;;;4976253;28;20399;-87
2022/01/11 11:35:23;;;;;;;54.25;24.55;;;3.10;99.90;;;;;;4976239;28;20026;-87
2022/01/11 11:37:54;;;;;;;50.47;22.73;;;3.10;99.90;;;;;;4994060;28;20410;-87
2022/01/11 11:40:22;;;;;;;43.67;20.85;;;3.20;99.90;;;;;;4976650;28;20026;-86
2022/01/11 11:42:55;;;;;;;48.65;21.55;;;3.30;99.90;;;;;;4974370;28;20057;-86
2022/01/11 11:45:29;;;;;;;49.20;22.33;;;3.40;99.90;;;;;;4978195;28;20407;-87
2022/01/11 11:48:08;;;;;;;50.63;23.25;;;3.40;99.90;;;;;;4976969;28;20027;-87
2022/01/11 11:50:45;;;;;;;43.92;19.00;;;3.50;99.90;;;;;;4976517;28;20080;-87
2022/01/11 11:53:24;;;;;;;39.97;20.58;;;3.60;99.90;;;;;;4992806;28;20038;-87
2022/01/11 11:55:50;;;;;;;38.67;19.48;;;3.60;99.90;;;;;;4976671;28;20056;-87
2022/01/11 11:58:21;;;;;;;43.42;20.25;;;3.70;99.90;;;;;;4976025;28;20057;-86
2022/01/11 12:00:47;;;;;;;39.80;19.08;;;3.70;99.90;;;;;;4976734;28;20037;-86
2022/01/11 12:03:21;;;;;;;38.72;21.23;;;3.70;99.90;;;;;;4973076;28;20035;-86
2022/01/11 12:05:48;;;;;;;43.95;19.27;;;3.80;99.90;;;;;;4978788;28;20029;-85
2022/01/11 12:08:31;;;;;;;40.63;19.98;;;3.80;99.90;;;;;;4976181;28;20482;-86
2022/01/11 12:11:18;;;;;;;36.50;18.15;;;3.90;99.90;;;;;;4976440;28;20213;-86
2022/01/11 12:13:56;;;;;;;38.47;18.27;;;3.90;99.90;;;;;;4976070;28;20030;-87
2022/01/11 12:16:27;;;;;;;37.63;17.55;;;4.00;99.90;;;;;;4984710;28;20364;-86
2022/01/11 12:18:58;;;;;;;36.07;17.57;;;4.10;99.90;;;;;;4980575;28;20030;-86
2022/01/11 12:21:25;;;;;;;32.63;16.52;;;4.10;99.90;;;;;;4979808;28;20030;-87
2022/01/11 12:23:56;;;;;;;34.40;17.15;;;4.10;99.90;;;;;;4995644;28;20052;-87
2022/01/11 12:26:35;;;;;;;34.75;17.08;;;4.20;99.90;;;;;;4978331;28;20451;-87
2022/01/11 12:29:07;;;;;;;31.75;14.77;;;4.20;99.90;;;;;;4981042;28;20037;-86
2022/01/11 12:31:33;;;;;;;32.88;16.52;;;4.20;99.90;;;;;;4996323;28;20030;-86
2022/01/11 12:33:59;;;;;;;27.45;14.98;;;4.20;99.90;;;;;;4980334;28;20034;-87
2022/01/11 12:36:58;;;;;;;26.65;15.00;;;4.30;99.90;;;;;;4997471;28;20026;-87